CheckWX is a tool to help pilots better visualize weather data.  It is not intended as a substitute for an official pre-flight weather briefing.

08:03:51 UTC

EGDM METAR
MoD Boscombe Down Airport
Amesbury, United Kingdom
Current

14 mins ago

EGDM 060750Z 23016KT 9999 OVC009 11/10 Q1006 NOSIG RMK GRN GRN
Observed
Dec-6 @ 07:50 UTC
Wind
  • 230° at 16 KTS
Visibility
10,000+ meters
Flight Rules
IFR
Cloud Levels
  • Overcast at 900' AGL
Temperature
11°C / 52°F
Dewpoint
10°C / 50°F
Humidity
94%
Altimeter
29.7" Hg
Pressure
1005.92 hPa
Previous

1 hour ago

EGDM 060650Z 21014KT 9999 -RA OVC008 11/10 Q1007 RMK GRN
Observed
Dec-6 @ 06:50 UTC
Wind
  • 210° at 14 KTS
Visibility
10,000+ meters
Flight Rules
IFR
Conditions
Light Rain
Cloud Levels
  • Overcast at 800' AGL
Temperature
11°C / 52°F
Dewpoint
10°C / 50°F
Humidity
94%
Altimeter
29.73" Hg
Pressure
1006.92 hPa
Previous

2 hours ago

EGDM 060550Z AUTO 22015KT 9999 -DZ BKN008/// SCT014/// 11/10 Q1007
Observed
Dec-6 @ 05:50 UTC
Wind
  • 220° at 15 KTS
Visibility
10,000+ meters
Flight Rules
IFR
Conditions
Light Drizzle
Cloud Levels
  • Broken at 800' AGL
  • Scattered at 1,400' AGL
Temperature
11°C / 52°F
Dewpoint
10°C / 50°F
Humidity
94%
Altimeter
29.73" Hg
Pressure
1006.92 hPa